createdAt,value
2023-03-12T00:02:59.602Z,0.75
2023-03-12T00:06:10.232Z,0.79
2023-03-12T00:09:13.617Z,0.77
2023-03-12T00:12:16.403Z,0.74
2023-03-12T00:15:19.180Z,0.68
2023-03-12T00:18:22.021Z,0.76
2023-03-12T00:21:25.139Z,0.77
2023-03-12T00:24:28.029Z,0.76
2023-03-12T00:27:30.537Z,0.73
2023-03-12T00:30:33.384Z,0.69
2023-03-12T00:33:35.952Z,0.65
2023-03-12T00:36:40.693Z,0.69
2023-03-12T00:39:43.466Z,0.70
2023-03-12T00:42:46.357Z,0.57
2023-03-12T00:45:48.971Z,0.61
2023-03-12T00:48:52.081Z,0.57
2023-03-12T00:51:55.098Z,0.56
2023-03-12T00:54:58.950Z,0.50
2023-03-12T00:58:03.068Z,0.44
2023-03-12T01:01:06.025Z,0.40
2023-03-12T01:04:09.008Z,0.35
2023-03-12T01:07:11.913Z,0.36
2023-03-12T01:10:16.812Z,0.34
2023-03-12T01:13:21.644Z,0.26
2023-03-12T01:16:28.246Z,0.29
2023-03-12T01:19:31.729Z,0.27
2023-03-12T01:22:35.374Z,0.24
2023-03-12T01:25:38.555Z,0.24
2023-03-12T01:28:41.674Z,0.23
2023-03-12T01:31:45.008Z,0.13
2023-03-12T01:34:47.687Z,0.19
2023-03-12T01:37:50.746Z,0.15
2023-03-12T01:40:53.511Z,0.13
2023-03-12T01:43:56.368Z,0.12
2023-03-12T01:46:59.130Z,0.12
2023-03-12T01:50:03.311Z,0.13
2023-03-12T01:53:06.224Z,0.04
2023-03-12T01:56:10.092Z,-0.08
2023-03-12T01:59:20.768Z,-0.15
2023-03-12T02:02:27.149Z,-0.10
2023-03-12T02:05:48.718Z,-0.21
2023-03-12T02:08:52.939Z,-0.10
2023-03-12T02:11:55.792Z,-0.08
2023-03-12T02:14:58.466Z,-0.17
2023-03-12T02:18:06.350Z,-0.18
2023-03-12T02:21:24.426Z,-0.14
2023-03-12T02:24:35.935Z,-0.10
2023-03-12T02:27:39.252Z,-0.11
2023-03-12T02:30:45.519Z,-0.09
2023-03-12T02:33:48.232Z,-0.07
2023-03-12T02:36:51.250Z,-0.12
2023-03-12T02:40:03.850Z,-0.13
2023-03-12T02:43:09.750Z,-0.14
2023-03-12T02:46:12.609Z,-0.14
2023-03-12T02:49:18.103Z,-0.15
2023-03-12T02:52:21.098Z,-0.17
2023-03-12T02:55:24.647Z,-0.17
2023-03-12T02:58:27.224Z,-0.19
2023-03-12T03:01:30.232Z,-0.17
2023-03-12T03:04:34.897Z,-0.14
2023-03-12T03:07:38.093Z,-0.17
2023-03-12T03:10:40.785Z,-0.21
2023-03-12T03:13:44.272Z,-0.23
2023-03-12T03:16:47.612Z,-0.25
2023-03-12T03:19:51.686Z,-0.29
2023-03-12T03:22:54.284Z,-0.27
2023-03-12T03:25:57.257Z,-0.26
2023-03-12T03:28:59.895Z,-0.27
2023-03-12T03:32:03.120Z,-0.33
2023-03-12T03:35:06.407Z,-0.34
2023-03-12T03:38:09.475Z,-0.45
2023-03-12T03:41:12.204Z,-0.52
2023-03-12T03:44:15.485Z,-0.51
2023-03-12T03:47:18.675Z,-0.47
2023-03-12T03:50:22.050Z,-0.47
2023-03-12T03:53:25.071Z,-0.42
2023-03-12T03:56:28.053Z,-0.42
2023-03-12T03:59:32.785Z,-0.49
2023-03-12T04:02:36.161Z,-0.41
2023-03-12T04:05:39.165Z,-0.44
2023-03-12T04:08:42.153Z,-0.46
2023-03-12T04:11:45.666Z,-0.46
2023-03-12T04:14:48.671Z,-0.46
2023-03-12T04:17:52.024Z,-0.48
2023-03-12T04:20:55.343Z,-0.49
2023-03-12T04:23:58.388Z,-0.53
2023-03-12T04:27:01.254Z,-0.54
2023-03-12T04:30:04.956Z,-0.55
2023-03-12T04:33:08.214Z,-0.52
2023-03-12T04:36:11.922Z,-0.51
2023-03-12T04:39:19.615Z,-0.53
2023-03-12T04:42:23.264Z,-0.64
2023-03-12T04:45:26.457Z,-0.73
2023-03-12T04:48:29.866Z,-0.74
2023-03-12T04:51:33.136Z,-0.84
2023-03-12T04:54:37.537Z,-0.85
2023-03-12T04:57:40.383Z,-0.89
2023-03-12T05:00:43.681Z,-0.93
2023-03-12T05:03:46.758Z,-0.95
2023-03-12T05:06:50.084Z,-0.99
2023-03-12T05:09:52.786Z,-1.00
2023-03-12T05:12:55.944Z,-0.98
2023-03-12T05:15:58.641Z,-1.04
2023-03-12T05:19:02.414Z,-1.11
2023-03-12T05:22:06.289Z,-1.07
2023-03-12T05:25:09.950Z,-1.04
2023-03-12T05:28:12.622Z,-1.04
2023-03-12T05:31:16.330Z,-0.98
2023-03-12T05:34:19.025Z,-1.00
2023-03-12T05:37:22.170Z,-1.05
2023-03-12T05:40:25.025Z,-0.93
2023-03-12T05:43:28.926Z,-0.96
2023-03-12T05:46:31.690Z,-0.95
2023-03-12T05:49:35.236Z,-0.95
2023-03-12T05:52:38.038Z,-0.89
2023-03-12T05:55:41.235Z,-0.80
2023-03-12T05:58:44.731Z,-0.81
2023-03-12T06:01:48.204Z,-0.80
2023-03-12T06:04:51.561Z,-0.76
2023-03-12T06:07:54.289Z,-0.72
2023-03-12T06:10:57.144Z,-0.72
2023-03-12T06:13:59.715Z,-0.63
2023-03-12T06:17:02.803Z,-0.57
2023-03-12T06:20:06.137Z,-0.54
2023-03-12T06:23:09.407Z,-0.46
2023-03-12T06:26:12.782Z,-0.46
2023-03-12T06:29:16.455Z,-0.36
2023-03-12T06:32:19.218Z,-0.39
2023-03-12T06:35:22.096Z,-0.23
2023-03-12T06:38:25.108Z,-0.11
2023-03-12T06:41:27.999Z,-0.04
2023-03-12T06:44:30.584Z,0.10
2023-03-12T06:47:33.448Z,0.23
2023-03-12T06:50:37.720Z,0.36
2023-03-12T06:53:42.478Z,0.49
2023-03-12T06:56:46.013Z,0.54
2023-03-12T06:59:50.624Z,0.63
2023-03-12T07:02:53.389Z,0.70
2023-03-12T07:05:57.826Z,0.85
2023-03-12T07:09:01.196Z,0.97
2023-03-12T07:12:04.269Z,1.11
2023-03-12T07:15:07.354Z,1.39
2023-03-12T07:18:11.606Z,1.52
2023-03-12T07:21:22.450Z,1.77
2023-03-12T07:24:25.381Z,1.79
2023-03-12T07:27:28.226Z,2.00
2023-03-12T07:30:33.607Z,2.09
2023-03-12T07:33:36.519Z,2.08
2023-03-12T07:36:39.682Z,2.35
2023-03-12T07:39:43.903Z,2.56
2023-03-12T07:42:46.908Z,2.63
2023-03-12T07:45:50.162Z,2.95
2023-03-12T07:48:53.567Z,3.05
2023-03-12T07:51:56.628Z,3.19
2023-03-12T07:54:59.637Z,3.34
2023-03-12T07:58:02.600Z,3.44
2023-03-12T08:01:06.834Z,3.73
2023-03-12T08:04:09.874Z,3.85
2023-03-12T08:07:12.600Z,3.97
2023-03-12T08:10:15.677Z,4.11
2023-03-12T08:13:18.372Z,4.34
2023-03-12T08:16:21.205Z,4.59
2023-03-12T08:19:24.832Z,4.71
2023-03-12T08:22:27.736Z,4.98
2023-03-12T08:25:30.347Z,5.09
2023-03-12T08:28:33.294Z,5.02
2023-03-12T08:31:35.915Z,5.16
2023-03-12T08:34:38.742Z,5.14
2023-03-12T08:37:41.608Z,5.24
2023-03-12T08:40:44.925Z,5.49
2023-03-12T08:43:47.524Z,5.51
2023-03-12T08:46:51.231Z,5.74
2023-03-12T08:49:53.783Z,5.82
2023-03-12T08:52:56.749Z,5.99
2023-03-12T08:55:59.454Z,6.06
2023-03-12T08:59:02.706Z,6.02
2023-03-12T09:02:05.297Z,6.60
2023-03-12T09:05:08.411Z,6.76
2023-03-12T09:08:11.951Z,6.67
2023-03-12T09:11:15.560Z,6.97
2023-03-12T09:17:41.535Z,7.17
2023-03-12T09:20:44.305Z,7.41
2023-03-12T09:23:47.567Z,7.44
2023-03-12T09:26:50.563Z,7.74
2023-03-12T09:30:00.146Z,7.97
2023-03-12T09:33:04.922Z,8.26
2023-03-12T09:36:08.148Z,8.82
2023-03-12T09:39:10.938Z,9.03
2023-03-12T09:42:38.962Z,9.39
2023-03-12T09:45:46.015Z,9.40
2023-03-12T09:48:49.665Z,9.92
2023-03-12T09:51:55.947Z,10.02
2023-03-12T09:55:11.236Z,10.15
2023-03-12T09:58:29.360Z,10.25
2023-03-12T10:01:37.075Z,10.27
2023-03-12T10:04:58.135Z,10.29
2023-03-12T10:08:24.746Z,10.02
2023-03-12T10:11:49.369Z,10.39
2023-03-12T10:15:15.331Z,10.88
2023-03-12T10:18:25.560Z,10.93
2023-03-12T10:22:07.542Z,10.99
2023-03-12T10:25:29.118Z,11.52
2023-03-12T10:28:37.915Z,11.55
2023-03-12T10:31:51.063Z,11.62
2023-03-12T10:34:59.037Z,11.84
2023-03-12T10:38:03.823Z,11.30
2023-03-12T10:41:28.752Z,11.94
2023-03-12T10:44:31.669Z,12.35
2023-03-12T10:47:41.084Z,13.14
2023-03-12T10:50:43.994Z,12.95
2023-03-12T10:53:48.021Z,13.37
2023-03-12T10:56:51.537Z,12.68
2023-03-12T11:00:08.034Z,13.12
2023-03-12T11:03:21.813Z,13.45
2023-03-12T11:06:29.148Z,13.60
2023-03-12T11:09:32.325Z,13.34
2023-03-12T11:12:39.871Z,13.71
2023-03-12T11:15:43.578Z,13.75
2023-03-12T11:19:01.549Z,13.70
2023-03-12T11:22:11.760Z,14.20
2023-03-12T11:25:26.342Z,13.60
2023-03-12T11:28:40.910Z,14.48
2023-03-12T11:32:17.774Z,14.77
2023-03-12T11:35:44.595Z,14.95
2023-03-12T11:39:00.948Z,14.97
2023-03-12T11:42:39.236Z,14.75
2023-03-12T11:46:16.499Z,14.06
2023-03-12T11:49:57.032Z,14.83
2023-03-12T11:53:09.103Z,14.75
2023-03-12T11:56:30.380Z,14.74
2023-03-12T12:00:07.058Z,14.90
2023-03-12T12:03:19.270Z,15.45
2023-03-12T12:06:40.583Z,15.49
2023-03-12T12:09:45.742Z,15.57
2023-03-12T12:13:19.381Z,15.83
2023-03-12T12:16:47.131Z,15.52
2023-03-12T12:19:56.270Z,15.83
2023-03-12T12:23:17.349Z,15.98
2023-03-12T12:26:42.925Z,16.00
2023-03-12T12:30:12.395Z,15.68
2023-03-12T12:33:15.598Z,15.63
2023-03-12T12:36:18.799Z,15.79
2023-03-12T12:39:40.508Z,15.50
2023-03-12T12:43:12.516Z,15.67
2023-03-12T12:46:20.675Z,15.77
2023-03-12T12:49:32.085Z,15.59
2023-03-12T12:52:35.177Z,15.34
2023-03-12T12:55:42.852Z,16.07
2023-03-12T12:59:07.167Z,15.37
2023-03-12T13:02:17.903Z,15.16
2023-03-12T13:05:22.868Z,15.23
2023-03-12T13:08:39.538Z,15.03
2023-03-12T13:11:46.857Z,14.81
2023-03-12T13:14:50.454Z,14.66
2023-03-12T13:17:56.418Z,14.56
2023-03-12T13:21:19.812Z,14.38
2023-03-12T13:24:24.989Z,13.99
2023-03-12T13:27:36.657Z,14.19
2023-03-12T13:30:41.785Z,14.31
2023-03-12T13:33:48.218Z,13.58
2023-03-12T13:36:52.674Z,13.93
2023-03-12T13:39:55.299Z,13.67
2023-03-12T13:43:02.763Z,13.36
2023-03-12T13:46:06.929Z,13.52
2023-03-12T13:49:12.318Z,13.43
2023-03-12T13:52:27.415Z,13.17
2023-03-12T13:55:32.909Z,12.64
2023-03-12T13:58:53.332Z,12.85
2023-03-12T14:02:02.447Z,12.47
2023-03-12T14:05:08.804Z,12.71
2023-03-12T14:08:25.346Z,12.84
2023-03-12T14:12:03.109Z,12.35
2023-03-12T14:15:38.881Z,12.34
2023-03-12T14:18:45.034Z,11.93
2023-03-12T14:21:49.242Z,11.44
2023-03-12T14:24:58.124Z,11.13
2023-03-12T14:28:02.253Z,11.14
2023-03-12T14:31:11.808Z,11.16
2023-03-12T14:34:20.935Z,10.82
2023-03-12T14:37:32.980Z,10.65
2023-03-12T14:40:44.616Z,10.78
2023-03-12T14:43:52.186Z,10.67
2023-03-12T14:47:03.016Z,10.69
2023-03-12T14:50:07.096Z,10.70
2023-03-12T14:53:23.771Z,10.36
2023-03-12T14:56:33.386Z,10.08
2023-03-12T14:59:38.149Z,10.04
2023-03-12T15:02:42.642Z,10.01
2023-03-12T15:05:48.916Z,9.90
2023-03-12T15:08:51.835Z,9.72
2023-03-12T15:11:58.006Z,9.56
2023-03-12T15:15:08.642Z,9.55
2023-03-12T15:18:30.338Z,9.40
2023-03-12T15:21:35.042Z,9.58
2023-03-12T15:24:40.668Z,9.45
2023-03-12T15:27:43.709Z,9.07
2023-03-12T15:30:46.871Z,8.87
2023-03-12T15:34:04.577Z,8.91
2023-03-12T15:37:32.508Z,8.96
2023-03-12T15:40:36.503Z,8.91
2023-03-12T15:43:43.849Z,8.79
2023-03-12T15:46:48.669Z,8.50
2023-03-12T15:50:01.442Z,8.46
2023-03-12T15:53:07.545Z,8.43
2023-03-12T15:56:10.102Z,8.36
2023-03-12T15:59:21.144Z,8.31
2023-03-12T16:03:00.200Z,8.13
2023-03-12T16:06:03.765Z,8.07
2023-03-12T16:09:06.412Z,7.93
2023-03-12T16:12:10.048Z,7.89
2023-03-12T16:15:18.693Z,7.75
2023-03-12T16:18:22.691Z,7.65
2023-03-12T16:21:25.985Z,7.61
2023-03-12T16:24:29.217Z,7.45
2023-03-12T16:27:34.367Z,7.47
2023-03-12T16:30:37.538Z,7.40
2023-03-12T16:33:40.547Z,7.33
2023-03-12T16:36:43.656Z,7.26
2023-03-12T16:39:48.263Z,7.20
2023-03-12T16:42:54.502Z,7.11
2023-03-12T16:45:57.994Z,7.02
2023-03-12T16:49:01.783Z,7.45
2023-03-12T16:52:34.359Z,7.18
2023-03-12T16:55:50.197Z,7.03
2023-03-12T16:58:54.538Z,6.87
2023-03-12T17:01:57.675Z,6.74
2023-03-12T17:05:00.726Z,6.59
2023-03-12T17:08:03.769Z,6.47
2023-03-12T17:11:20.968Z,6.38
2023-03-12T17:14:24.301Z,6.19
2023-03-12T17:17:27.117Z,6.10
2023-03-12T17:20:36.169Z,5.99
2023-03-12T17:23:39.283Z,5.88
2023-03-12T17:26:44.177Z,5.84
2023-03-12T17:29:46.799Z,5.78
2023-03-12T17:32:51.094Z,5.72
2023-03-12T17:36:02.280Z,5.55
2023-03-12T17:39:05.707Z,5.49
2023-03-12T17:42:08.324Z,5.39
2023-03-12T17:45:11.618Z,5.30
2023-03-12T17:48:15.013Z,5.18
2023-03-12T17:51:17.882Z,5.17
2023-03-12T17:54:22.060Z,5.18
2023-03-12T17:57:25.062Z,5.13
2023-03-12T18:00:28.406Z,5.02
2023-03-12T18:03:31.420Z,4.94
2023-03-12T18:06:34.333Z,4.97
2023-03-12T18:09:37.403Z,4.86
2023-03-12T18:12:40.805Z,4.78
2023-03-12T18:15:51.729Z,4.61
2023-03-12T18:18:54.772Z,4.51
2023-03-12T18:21:57.892Z,4.38
2023-03-12T18:25:00.887Z,4.27
2023-03-12T18:28:03.939Z,4.17
2023-03-12T18:31:06.796Z,4.18
2023-03-12T18:34:09.975Z,4.21
2023-03-12T18:37:12.626Z,4.10
2023-03-12T18:40:16.346Z,4.06
2023-03-12T18:43:21.451Z,3.67
2023-03-12T18:46:25.304Z,4.05
2023-03-12T18:49:28.056Z,3.97
2023-03-12T18:52:31.559Z,3.98
2023-03-12T18:55:34.441Z,4.00
2023-03-12T18:58:37.451Z,3.84
2023-03-12T19:01:41.601Z,3.76
2023-03-12T19:04:47.030Z,3.70
2023-03-12T19:07:49.911Z,3.63
2023-03-12T19:10:53.637Z,3.57
2023-03-12T19:13:56.585Z,3.56
2023-03-12T19:16:59.755Z,3.68
2023-03-12T19:20:06.013Z,3.75
2023-03-12T19:23:10.717Z,3.81
2023-03-12T19:26:17.279Z,3.90
2023-03-12T19:29:20.328Z,3.84
2023-03-12T19:32:33.076Z,3.84
2023-03-12T19:35:43.719Z,3.80
2023-03-12T19:38:46.659Z,3.71
2023-03-12T19:41:50.616Z,3.69
2023-03-12T19:44:53.778Z,3.66
2023-03-12T19:47:57.090Z,3.66
2023-03-12T19:51:07.738Z,3.70
2023-03-12T19:54:10.967Z,3.72
2023-03-12T19:57:13.814Z,3.75
2023-03-12T20:00:17.356Z,3.73
2023-03-12T20:03:20.885Z,3.66
2023-03-12T20:06:24.213Z,3.71
2023-03-12T20:09:27.162Z,3.67
2023-03-12T20:12:33.205Z,3.63
2023-03-12T20:15:39.550Z,3.66
2023-03-12T20:18:43.099Z,3.55
2023-03-12T20:21:48.234Z,3.54
2023-03-12T20:24:51.216Z,3.46
2023-03-12T20:27:54.434Z,3.43
2023-03-12T20:30:57.347Z,3.38
2023-03-12T20:34:00.380Z,3.34
2023-03-12T20:37:03.223Z,3.36
2023-03-12T20:40:06.934Z,3.34
2023-03-12T20:43:09.847Z,3.28
2023-03-12T20:46:13.744Z,3.23
2023-03-12T20:49:16.581Z,3.19
2023-03-12T20:52:19.823Z,3.17
2023-03-12T20:55:22.546Z,3.19
2023-03-12T20:58:28.930Z,3.25
2023-03-12T21:01:31.852Z,3.23
2023-03-12T21:04:35.110Z,3.28
2023-03-12T21:07:38.033Z,3.25
2023-03-12T21:10:40.945Z,3.24
2023-03-12T21:13:44.390Z,3.27
2023-03-12T21:16:47.549Z,3.26
2023-03-12T21:19:50.488Z,3.21
2023-03-12T21:22:53.824Z,3.22
2023-03-12T21:26:01.524Z,3.23
2023-03-12T21:29:04.669Z,3.19
2023-03-12T21:32:07.477Z,3.12
2023-03-12T21:35:10.719Z,3.01
2023-03-12T21:38:13.549Z,3.02
2023-03-12T21:41:17.644Z,3.00
2023-03-12T21:44:20.434Z,2.95
2023-03-12T21:47:23.332Z,2.88
2023-03-12T21:50:26.209Z,2.83
2023-03-12T21:53:29.018Z,2.90
2023-03-12T21:56:31.700Z,2.96
2023-03-12T21:59:34.666Z,2.97
2023-03-12T22:02:37.447Z,2.98
2023-03-12T22:05:40.313Z,2.98
2023-03-12T22:08:43.657Z,3.00
2023-03-12T22:11:46.673Z,2.95
2023-03-12T22:14:49.227Z,2.83
2023-03-12T22:17:52.108Z,2.86
2023-03-12T22:20:57.966Z,2.84
2023-03-12T22:24:01.442Z,2.89
2023-03-12T22:27:06.567Z,2.91
2023-03-12T22:30:12.405Z,2.90
2023-03-12T22:33:17.964Z,2.92
2023-03-12T22:36:21.237Z,2.94
2023-03-12T22:39:23.999Z,3.02
2023-03-12T22:42:27.395Z,3.03
2023-03-12T22:45:29.941Z,3.06
2023-03-12T22:48:33.160Z,3.11
2023-03-12T22:51:35.796Z,3.15
2023-03-12T22:54:38.767Z,3.22
2023-03-12T22:57:41.297Z,3.21
2023-03-12T23:00:44.120Z,3.27
2023-03-12T23:03:47.037Z,3.30
2023-03-12T23:06:49.839Z,3.39
2023-03-12T23:09:52.549Z,3.42
2023-03-12T23:12:55.613Z,3.52
2023-03-12T23:16:05.847Z,3.59
2023-03-12T23:19:09.234Z,3.57
2023-03-12T23:22:11.926Z,3.63
2023-03-12T23:25:14.902Z,3.65
2023-03-12T23:28:17.432Z,3.64
2023-03-12T23:31:21.181Z,3.62
2023-03-12T23:34:23.894Z,3.60
2023-03-12T23:37:26.983Z,3.48
2023-03-12T23:40:31.188Z,3.54
2023-03-12T23:43:34.388Z,3.47
2023-03-12T23:46:36.942Z,3.50
2023-03-12T23:49:40.080Z,3.48
2023-03-12T23:52:43.063Z,3.46
2023-03-12T23:55:57.160Z,3.41
2023-03-12T23:58:59.873Z,3.42
